Dawson, MN (56232)

11:00 PM CDT on September 19, 2014 (GMT -0500)
Madison-Lac Qui Parle County | Change Station
CLOSE
Current Station
Airport
Location: Madison,
Elevation: 1083 ft
Nearby Weather Stations

Elev 1083 ft 44.98 °N, 96.18 °W | Updated 7 minutes ago

Clear
Clear
68 °F
Feels Like 68 °F
N
5
Wind Variable Wind from West

Today
High -- | Low -- °F
--% Chance of Precip.
Yesterday
High -- | Low -- °F
Precip. -- in
7:07 AM 7:27 PM
Waning Crescent, 15% visible
Pressure 29.67 in
Visibility -9999.0 miles
Clouds Clear
Dew Point 64 °F
Humidity 88%
Rainfall 0.00 in
Snow Depth Not available.
UV 0 out of 12
Pollen 5.80 out of 12
Air Quality Not available.
Flu Activity Not available.
METAR KDXX 200353Z AUTO 27004KT CLR 20/18 A2967 RMK AO2

More Conditions Fewer Conditions

Pressure 29.67 in
Visibility -9999.0 miles
Clouds Clear
Dew Point 64 °F
Humidity 88%
Rainfall 0.00 in
Snow Depth Not available.
UV 0 out of 12
Pollen 5.80 out of 12
Air Quality Not available.
Flu Activity Not available.
METAR KDXX 200353Z AUTO 27004KT CLR 20/18 A2967 RMK AO2

More Conditions Fewer Conditions

10-Day Weather Forecast

Almanac

Astronomy

Sep. 19, 2014 Rise Set
Actual Time 7:07 AM CDT 7:27 PM CDT
Civil Twilight 6:38 AM CDT 7:56 PM CDT
Nautical Twilight 6:03 AM CDT 8:31 PM CDT
Astronomical Twilight 5:28 AM CDT 9:06 PM CDT
Moon 2:45 AM CDT (9/19) 5:04 PM CDT (9/19)
Length of Visible Light 13h 18m
Length of Day
12h 19m
Tomorrow will be 3m 5s shorter.
Waning Crescent, 15% of the Moon is Illuminated
Sep 20
Waning Crescent
Sep 24
New
Oct 1
First Quarter
Oct 8
Full
Oct 15
Last Quarter

Today's Extremes

State Highs State Lows

Community

WunderPhotos

Upload Photos

1,754,777 photos uploaded!

WunderBlogs® & News

Nearby

Snow Depth

Station Depth Elevation
No new snow has been reported.

Earthquake Activity

City Distance Mag. Time & Date
No recent earthquake activity has been reported nearby.
Minimum magnitude displayed is 2.5.

Coastal Water Temperatures

Place Temperature
No Stations Reporting

Nearby Weather Stations